Time;durP1;ratioP1;P1;durP2;ratioP2;P2;SDS_P1;SDS_P2;PMS_P1;PMS_P2;Temp;Humidity;BMP_temperature;BMP_pressure;BME280_temperature;BME280_humidity;BME280_pressure;Samples;Min_cycle;Max_cycle;Signal;HPM_P1;HPM_P2
2020/12/25 00:00:56;;;;;;;3.97;1.63;;;;;;;6.84;88.60;92905.53;5113480;28;20435;-91
2020/12/25 00:03:22;;;;;;;;;;;;;;;6.86;88.44;92903.56;5113930;28;20043;-90
2020/12/25 00:05:49;;;;;;;4.35;1.88;;;;;;;6.86;88.54;92899.28;5113213;28;19920;-89
2020/12/25 00:08:15;;;;;;;6.25;2.28;;;;;;;6.91;88.53;92899.44;5113563;28;20043;-89
2020/12/25 00:10:41;;;;;;;;;;;;;;;6.90;88.41;92889.44;5113540;28;20535;-89
2020/12/25 00:13:09;;;;;;;1.83;1.10;;;;;;;6.85;88.87;92884.13;5100795;28;19965;-89
2020/12/25 00:15:35;;;;;;;2.60;1.13;;;;;;;6.89;88.48;92893.00;5092854;28;20044;-89
2020/12/25 00:18:01;;;;;;;3.67;1.63;;;;;;;6.91;88.57;92896.91;5092787;28;20072;-88
2020/12/25 00:20:28;;;;;;;1.70;0.60;;;;;;;6.89;88.87;92903.19;5092691;28;20040;-90
2020/12/25 00:22:54;;;;;;;6.05;1.98;;;;;;;6.95;88.11;92898.09;5091669;28;20134;-88
2020/12/25 00:25:20;;;;;;;;;;;;;;;6.93;87.68;92892.41;5093075;28;20040;-90
2020/12/25 00:27:46;;;;;;;4.10;1.90;;;;;;;6.82;87.96;92892.97;5092564;28;19915;-90
2020/12/25 00:30:13;;;;;;;4.18;1.48;;;;;;;6.78;88.30;92894.34;5092705;28;20044;-89
2020/12/25 00:32:40;;;;;;;6.68;1.92;;;;;;;6.81;88.21;92899.06;5092324;28;20044;-89
2020/12/25 00:35:06;;;;;;;3.63;1.92;;;;;;;6.79;88.37;92903.56;5092558;28;20044;-88
2020/12/25 00:37:32;;;;;;;3.55;1.50;;;;;;;6.74;88.77;92903.34;5109927;28;20043;-90
2020/12/25 00:39:58;;;;;;;6.28;1.85;;;;;;;6.80;88.23;92895.72;5112779;28;20039;-89
2020/12/25 00:42:25;;;;;;;1.55;1.13;;;;;;;6.88;88.11;92891.41;5113094;28;20050;-89
2020/12/25 00:44:51;;;;;;;4.97;1.95;;;;;;;6.92;87.93;92884.94;5112544;28;20085;-90
2020/12/25 00:47:18;;;;;;;2.55;1.50;;;;;;;6.93;87.76;92891.59;5112063;28;20035;-88
2020/12/25 00:49:44;;;;;;;4.82;1.38;;;;;;;6.97;87.83;92886.88;5112681;28;20047;-88
2020/12/25 00:52:10;;;;;;;;;;;;;;;6.99;87.59;92884.94;5112870;28;20040;-88
2020/12/25 00:54:37;;;;;;;5.90;2.28;;;;;;;6.71;87.94;92862.91;5111824;28;20263;-88
2020/12/25 00:57:03;;;;;;;;;;;;;;;6.78;87.98;92890.03;5112932;28;20050;-88
2020/12/25 00:59:29;;;;;;;9.00;2.88;;;;;;;6.72;88.06;92890.81;5112333;28;19915;-88
2020/12/25 01:01:55;;;;;;;5.15;1.60;;;;;;;6.64;88.26;92898.63;5098976;28;20048;-87
2020/12/25 01:04:22;;;;;;;4.72;2.72;;;;;;;6.54;88.81;92891.34;5091849;28;20467;-88
2020/12/25 01:06:49;;;;;;;3.55;2.05;;;;;;;6.54;89.06;92893.91;5091779;28;20490;-89
2020/12/25 01:09:15;;;;;;;2.97;1.50;;;;;;;6.52;89.32;92894.06;5091204;28;20032;-89
2020/12/25 01:11:42;;;;;;;4.65;2.05;;;;;;;6.52;89.44;92906.03;5100714;28;20469;-88
2020/12/25 01:14:08;;;;;;;4.05;1.95;;;;;;;6.41;89.58;92879.31;5105766;28;20089;-89
2020/12/25 01:16:35;;;;;;;4.90;2.25;;;;;;;6.49;89.48;92894.44;5111781;28;20048;-90
2020/12/25 01:19:01;;;;;;;;;;;;;;;6.50;89.51;92890.16;5112719;28;20043;-89
2020/12/25 01:21:28;;;;;;;2.58;1.77;;;;;;;6.45;89.54;92888.19;5111781;28;20402;-89
2020/12/25 01:23:54;;;;;;;3.95;1.95;;;;;;;6.50;89.54;92885.03;5111909;28;20044;-90
2020/12/25 01:26:20;;;;;;;;;;;;;;;6.51;89.35;92873.84;5112222;28;20058;-89
2020/12/25 01:28:46;;;;;;;;;;;;;;;6.47;89.39;92881.09;5108537;28;19920;-89
2020/12/25 01:31:13;;;;;;;4.70;3.03;;;;;;;6.39;89.70;92873.63;5091273;28;20350;-88
2020/12/25 01:33:39;;;;;;;;;;;;;;;6.29;90.30;92863.78;5091948;28;20040;-89
2020/12/25 01:36:05;;;;;;;4.35;2.22;;;;;;;6.22;90.66;92871.44;5091545;28;19962;-88
2020/12/25 01:38:33;;;;;;;;;;;;;;;6.18;90.90;92870.22;5091920;28;20044;-89
2020/12/25 01:40:59;;;;;;;3.50;2.17;;;;;;;5.80;91.10;92820.44;5091379;28;19916;-88
2020/12/25 01:43:25;;;;;;;4.95;2.40;;;;;;;6.10;91.28;92855.06;5091411;28;20052;-87
2020/12/25 01:45:52;;;;;;;2.80;1.83;;;;;;;6.06;91.36;92857.22;5091101;28;20074;-89
2020/12/25 01:48:18;;;;;;;3.25;2.28;;;;;;;6.07;91.51;92852.94;5091227;28;20097;-89
2020/12/25 01:50:45;;;;;;;;;;;;;;;6.09;91.48;92848.41;5051350;28;20045;-89
2020/12/25 01:53:11;;;;;;;3.30;1.55;;;;;;;5.96;91.85;92846.56;5051104;28;20317;-89
2020/12/25 01:55:39;;;;;;;2.88;1.85;;;;;;;5.94;91.72;92825.59;5051021;28;20090;-89
2020/12/25 01:58:07;;;;;;;8.07;2.13;;;;;;;6.09;91.25;92846.66;5050832;28;20063;-89
2020/12/25 02:00:34;;;;;;;4.63;2.03;;;;;;;6.06;91.40;92843.72;5050909;28;20067;-90
2020/12/25 02:03:00;;;;;;;1.85;1.08;;;;;;;6.18;91.16;92849.03;5050941;28;20049;-89
2020/12/25 02:05:27;;;;;;;5.60;2.30;;;;;;;6.19;91.14;92840.41;5051256;28;20083;-89
2020/12/25 02:07:55;;;;;;;4.20;2.13;;;;;;;6.24;91.55;92853.38;5055084;28;20095;-88
2020/12/25 02:10:22;;;;;;;2.50;1.25;;;;;;;6.23;90.80;92850.03;5055175;28;20048;-88
2020/12/25 02:12:50;;;;;;;4.07;2.08;;;;;;;6.24;90.99;92848.25;5074529;28;20394;-89
2020/12/25 02:15:16;;;;;;;5.32;2.53;;;;;;;6.08;90.69;92837.44;5074754;28;20052;-90
2020/12/25 02:17:43;;;;;;;;;;;;;;;6.18;91.09;92842.19;5075402;28;20052;-89
2020/12/25 02:20:10;;;;;;;3.55;1.55;;;;;;;6.13;91.05;92841.97;5074796;28;19962;-90
2020/12/25 02:22:37;;;;;;;5.22;1.70;;;;;;;6.16;91.14;92839.03;5074809;28;20094;-89
2020/12/25 02:25:03;;;;;;;4.28;2.03;;;;;;;6.18;91.01;92833.72;5074677;28;20372;-89
2020/12/25 02:27:29;;;;;;;;;;;;;;;6.17;91.03;92838.06;5074895;28;20040;-89
2020/12/25 02:29:56;;;;;;;7.93;2.50;;;;;;;6.17;91.02;92845.72;5074688;28;19987;-88
2020/12/25 02:32:22;;;;;;;5.60;2.20;;;;;;;6.10;nan;92845.69;5074607;28;20059;-90
2020/12/25 02:34:48;;;;;;;;;;;;;;;6.13;90.86;92844.50;5075200;28;20064;-88
2020/12/25 02:37:14;;;;;;;5.70;1.70;;;;;;;5.96;91.29;92826.16;5074262;28;20358;-88
2020/12/25 02:39:41;;;;;;;2.03;1.33;;;;;;;5.94;91.53;92841.69;5074402;28;20517;-88
2020/12/25 02:42:11;;;;;;;2.95;1.52;;;;;;;5.82;92.32;92836.31;5074806;28;20060;-88
2020/12/25 02:44:37;;;;;;;6.15;2.47;;;;;;;5.77;92.68;92838.66;5076606;28;20178;-88
2020/12/25 02:47:03;;;;;;;;;;;;;;;5.71;93.13;92835.09;5075592;28;20057;-88
2020/12/25 02:49:30;;;;;;;6.78;2.33;;;;;;;5.68;93.25;92832.13;5094707;28;19916;-88
2020/12/25 02:51:56;;;;;;;4.60;1.95;;;;;;;5.68;93.32;92832.13;5114631;28;20044;-88
2020/12/25 02:54:22;;;;;;;;;;;;;;;5.68;93.28;92837.22;5115139;28;20039;-89
2020/12/25 02:56:49;;;;;;;;;;;;;;;5.64;93.72;92836.03;5115049;28;19920;-89
2020/12/25 02:59:15;;;;;;;5.82;3.70;;;;;;;5.58;94.01;92840.13;5114896;28;20411;-88
2020/12/25 03:01:41;;;;;;;;;;;;;;;5.60;94.03;92838.97;5115152;28;20089;-89
2020/12/25 03:04:07;;;;;;;6.05;2.25;;;;;;;5.56;93.98;92835.19;5114516;28;19916;-89
2020/12/25 03:06:33;;;;;;;;;;;;;;;5.62;94.06;92839.53;5114984;28;20486;-88
2020/12/25 03:09:00;;;;;;;3.95;1.65;;;;;;;5.56;93.67;92839.53;5114482;28;20273;-90
2020/12/25 03:11:26;;;;;;;6.25;3.10;;;;;;;5.58;93.51;92830.72;5114048;28;20382;-88
2020/12/25 03:13:53;;;;;;;3.85;3.17;;;;;;;5.61;93.33;92839.75;5114402;28;20043;-88
2020/12/25 03:16:19;;;;;;;7.47;2.65;;;;;;;5.63;93.43;92840.34;5114276;28;20046;-88
2020/12/25 03:18:46;;;;;;;8.27;2.97;;;;;;;5.64;93.17;92836.03;5113485;28;20051;-90
2020/12/25 03:21:12;;;;;;;7.25;1.95;;;;;;;5.64;93.48;92830.94;5114193;28;20062;-88
2020/12/25 03:23:38;;;;;;;;;;;;;;;5.61;93.11;92824.47;5114473;28;20040;-89
2020/12/25 03:26:05;;;;;;;2.22;1.20;;;;;;;5.58;93.43;92819.72;5114296;28;19916;-89
2020/12/25 03:28:31;;;;;;;2.67;1.52;;;;;;;5.55;93.85;92808.16;5114271;28;20070;-89
2020/12/25 03:30:58;;;;;;;;;;;;;;;5.55;93.90;92808.16;5114564;28;20043;-90
2020/12/25 03:33:24;;;;;;;3.05;1.58;;;;;;;5.48;93.94;92817.53;5114159;28;19919;-89
2020/12/25 03:35:50;;;;;;;;;;;;;;;5.50;94.09;92815.56;5114378;28;20088;-90
2020/12/25 03:38:17;;;;;;;5.03;1.73;;;;;;;5.48;94.22;92813.22;5113757;28;19916;-90
2020/12/25 03:40:43;;;;;;;;;;;;;;;5.51;93.92;92819.69;5114413;28;20093;-90
2020/12/25 03:43:09;;;;;;;3.38;1.70;;;;;;;5.48;94.12;92809.88;5113970;28;19962;-91
2020/12/25 03:45:35;;;;;;;;;;;;;;;5.51;94.24;92804.41;5114376;28;20039;-89
2020/12/25 03:48:02;;;;;;;5.10;1.90;;;;;;;5.33;94.16;92775.13;5113680;28;19915;-89
2020/12/25 03:50:29;;;;;;;3.42;1.70;;;;;;;5.47;94.22;92796.34;5113651;28;20112;-88
2020/12/25 03:52:55;;;;;;;;;;;;;;;5.47;94.18;92790.50;5114011;28;20040;-90
2020/12/25 03:55:21;;;;;;;4.28;2.72;;;;;;;5.46;94.41;92794.78;5113713;28;20349;-89
2020/12/25 03:57:48;;;;;;;4.82;1.65;;;;;;;5.48;94.39;92805.56;5113725;28;20050;-91
2020/12/25 04:00:14;;;;;;;3.88;3.05;;;;;;;5.52;94.61;92802.66;5113726;28;20044;-89
2020/12/25 04:02:40;;;;;;;4.88;1.90;;;;;;;5.52;94.29;92806.00;5113721;28;20048;-89
2020/12/25 04:05:08;;;;;;;3.47;1.90;;;;;;;5.51;94.09;92783.25;5113509;28;20073;-89
2020/12/25 04:07:34;;;;;;;4.05;1.75;;;;;;;5.46;93.96;92773.63;5113443;28;20043;-89
2020/12/25 04:10:00;;;;;;;;;;;;;;;5.61;94.20;92791.34;5113948;28;20047;-89
2020/12/25 04:12:26;;;;;;;3.85;1.75;;;;;;;5.53;94.40;92786.38;5113560;28;19926;-88
2020/12/25 04:14:52;;;;;;;;;;;;;;;5.59;94.16;92788.97;5113901;28;20035;-90
2020/12/25 04:17:19;;;;;;;4.20;1.90;;;;;;;5.58;94.03;92796.81;5113266;28;19915;-89
2020/12/25 04:19:45;;;;;;;;;;;;;;;5.56;94.36;92791.88;5113443;28;20047;-89
2020/12/25 04:22:12;;;;;;;4.20;2.17;;;;;;;5.56;94.15;92781.69;5112855;28;19916;-90
2020/12/25 04:24:38;;;;;;;3.88;2.30;;;;;;;5.56;93.79;92791.13;5112882;28;20044;-90
2020/12/25 04:27:04;;;;;;;;;;;;;;;5.55;93.92;92787.00;5113422;28;20040;-91
2020/12/25 04:29:31;;;;;;;8.57;3.17;;;;;;;5.53;93.76;92794.03;5111950;28;19919;-89
2020/12/25 04:31:57;;;;;;;;;;;;;;;5.50;94.05;92800.28;5113284;28;20052;-89
2020/12/25 04:34:23;;;;;;;8.85;4.18;;;;;;;5.44;94.18;92806.13;5112154;28;20307;-90
2020/12/25 04:36:49;;;;;;;;;;;;;;;5.40;94.96;92804.94;5113323;28;20043;-88
2020/12/25 04:39:16;;;;;;;5.00;2.80;;;;;;;5.18;95.06;92793.06;5112800;28;20289;-89
2020/12/25 04:41:43;;;;;;;12.85;2.75;;;;;;;5.35;95.11;92806.31;5112713;28;20051;-89
2020/12/25 04:44:09;;;;;;;;;;;;;;;5.36;95.18;92799.44;5113223;28;20039;-89
2020/12/25 04:46:35;;;;;;;9.40;2.95;;;;;;;5.33;95.85;92805.69;5112516;28;20376;-90
2020/12/25 04:49:01;;;;;;;;;;;;;;;5.40;95.47;92805.72;5112820;28;20047;-89
2020/12/25 04:51:28;;;;;;;4.30;2.15;;;;;;;5.34;95.37;92788.66;5112316;28;19973;-88
2020/12/25 04:53:55;;;;;;;9.32;3.40;;;;;;;5.45;94.93;92784.78;5112399;28;20053;-89
2020/12/25 04:56:24;;;;;;;8.82;4.07;;;;;;;5.66;94.74;92808.59;5112274;28;20035;-89
2020/12/25 04:58:51;;;;;;;6.55;4.15;;;;;;;5.70;94.09;92805.47;5112220;28;20039;-89
2020/12/25 05:01:18;;;;;;;6.60;4.00;;;;;;;5.70;93.94;92800.38;5112113;28;20538;-90
2020/12/25 05:03:45;;;;;;;11.65;4.68;;;;;;;5.74;93.85;92796.47;5112130;28;20069;-90
2020/12/25 05:06:13;;;;;;;6.82;4.25;;;;;;;5.75;93.46;92798.06;5112286;28;20494;-89
2020/12/25 05:08:40;;;;;;;6.68;2.58;;;;;;;5.75;93.74;92800.59;5112356;28;20043;-89
2020/12/25 05:11:08;;;;;;;10.50;3.00;;;;;;;5.75;93.58;92795.50;5112159;28;20386;-90
2020/12/25 05:13:43;;;;;;;3.75;2.40;;;;;;;5.78;93.19;92794.34;5112249;28;20039;-88
2020/12/25 05:16:11;;;;;;;6.57;2.33;;;;;;;5.74;93.39;92795.72;5111882;28;20504;-88
2020/12/25 05:18:41;;;;;;;7.95;1.70;;;;;;;5.78;93.49;92791.03;5111991;28;20051;-89
2020/12/25 05:21:10;;;;;;;5.60;2.83;;;;;;;5.42;93.85;92737.53;5112136;28;20440;-89
2020/12/25 05:23:38;;;;;;;3.50;1.95;;;;;;;5.84;93.31;92785.16;5112037;28;20043;-90
2020/12/25 05:26:06;;;;;;;3.30;2.10;;;;;;;5.91;92.90;92791.06;5111860;28;20043;-89
2020/12/25 05:28:38;;;;;;;4.63;1.85;;;;;;;5.94;92.56;92793.25;5111974;28;20050;-89
2020/12/25 05:31:04;;;;;;;3.53;2.00;;;;;;;5.96;92.28;92798.13;5111882;28;20043;-88
2020/12/25 05:33:32;;;;;;;3.10;1.77;;;;;;;5.92;92.33;92795.19;5111922;28;20043;-89
2020/12/25 05:35:58;;;;;;;4.55;2.55;;;;;;;5.95;92.59;92804.22;5111733;28;20456;-90
2020/12/25 05:38:26;;;;;;;;;;;;;;;5.98;91.89;92804.59;5112586;28;20040;-89
2020/12/25 05:40:53;;;;;;;5.50;2.35;;;;;;;5.92;92.36;92807.91;5111231;28;19941;-90
2020/12/25 05:43:19;;;;;;;7.95;3.13;;;;;;;5.77;92.99;92797.06;5111303;28;20047;-87
2020/12/25 05:45:46;;;;;;;8.15;4.03;;;;;;;5.75;93.00;92795.50;5111855;28;20419;-89
2020/12/25 05:48:13;;;;;;;6.25;3.22;;;;;;;5.72;93.46;92792.56;5111753;28;20052;-88
2020/12/25 05:50:41;;;;;;;3.42;2.17;;;;;;;5.80;93.44;92799.25;5111832;28;20043;-89
2020/12/25 05:53:09;;;;;;;6.28;2.50;;;;;;;5.83;93.43;92789.47;5111950;28;20459;-89
2020/12/25 05:55:37;;;;;;;2.92;1.90;;;;;;;5.82;93.39;92782.78;5111365;28;20044;-88
2020/12/25 05:58:04;;;;;;;5.93;2.50;;;;;;;5.85;93.00;92786.72;5111699;28;20501;-87
2020/12/25 06:00:31;;;;;;;4.38;1.70;;;;;;;5.86;93.30;92786.53;5113976;28;20396;-89
2020/12/25 06:02:58;;;;;;;2.95;1.65;;;;;;;5.86;93.29;92780.66;5112119;28;20055;-89
2020/12/25 06:05:26;;;;;;;2.80;1.65;;;;;;;5.93;92.75;92786.53;5111564;28;20036;-88
2020/12/25 06:07:54;;;;;;;4.05;2.13;;;;;;;5.92;92.92;92779.88;5111884;28;20093;-88
2020/12/25 06:10:22;;;;;;;2.88;1.77;;;;;;;5.94;93.05;92779.69;5111210;28;20047;-90
2020/12/25 06:12:49;;;;;;;5.07;1.80;;;;;;;6.03;92.70;92791.34;5111123;28;20047;-89
2020/12/25 06:15:25;;;;;;;3.08;1.42;;;;;;;6.05;92.15;92791.13;5111615;28;20371;-87
2020/12/25 06:18:13;;;;;;;3.53;1.92;;;;;;;6.18;91.72;92801.38;5111392;28;20051;-88
2020/12/25 06:20:45;;;;;;;8.18;2.90;;;;;;;6.25;91.53;92801.41;5111451;28;20040;-90
2020/12/25 06:23:13;;;;;;;4.47;2.50;;;;;;;6.27;91.38;92815.53;5111420;28;20035;-88
2020/12/25 06:25:40;;;;;;;5.32;2.40;;;;;;;6.27;91.32;92817.28;5111427;28;20036;-89
2020/12/25 06:28:07;;;;;;;4.68;1.90;;;;;;;6.28;90.87;92817.09;5111278;28;20090;-90
2020/12/25 06:30:34;;;;;;;5.95;3.28;;;;;;;6.22;90.73;92814.53;5111803;28;20477;-88
2020/12/25 06:33:01;;;;;;;9.20;3.72;;;;;;;6.37;90.94;92837.31;5111156;28;20055;-90
2020/12/25 06:35:33;;;;;;;5.68;3.00;;;;;;;6.38;90.83;92843.97;5111183;28;20039;-89
2020/12/25 06:37:59;;;;;;;10.35;4.25;;;;;;;6.40;90.50;92837.72;5111353;28;20047;-89
2020/12/25 06:40:27;;;;;;;8.00;4.10;;;;;;;6.46;90.31;92846.38;5111390;28;20055;-88
2020/12/25 06:42:55;;;;;;;9.40;3.85;;;;;;;6.46;90.45;92846.38;5111141;28;20040;-88
2020/12/25 06:45:27;;;;;;;8.48;3.17;;;;;;;6.56;89.87;92848.53;5110965;28;20142;-90
2020/12/25 06:48:10;;;;;;;7.28;2.92;;;;;;;6.63;89.48;92843.47;5111330;28;20051;-90
2020/12/25 06:50:42;;;;;;;3.58;1.92;;;;;;;6.54;89.75;92815.56;5113751;28;20047;-89
2020/12/25 06:53:08;;;;;;;3.90;1.48;;;;;;;6.59;89.78;92822.66;5113507;28;20039;-90
2020/12/25 06:55:40;;;;;;;;;;;;;;;6.60;89.85;92836.19;5115826;28;20447;-90
2020/12/25 06:58:06;;;;;;;5.25;2.10;;;;;;;6.58;90.04;92825.38;5115332;28;19916;-90
2020/12/25 07:00:32;;;;;;;6.65;3.33;;;;;;;6.55;90.31;92827.34;5115735;28;20047;-89
2020/12/25 07:03:10;;;;;;;3.90;2.33;;;;;;;6.55;90.01;92826.56;5115273;28;20112;-89
2020/12/25 07:05:46;;;;;;;5.85;2.42;;;;;;;6.68;89.71;92821.47;5115027;28;20100;-90
2020/12/25 07:08:25;;;;;;;;;;;;;;;6.73;89.50;92822.66;5115385;28;20047;-88
2020/12/25 07:10:59;;;;;;;6.18;4.00;;;;;;;6.68;89.26;92805.38;5099144;28;19981;-89
2020/12/25 07:13:25;;;;;;;4.53;2.42;;;;;;;6.79;89.03;92807.34;5094505;28;20040;-89
2020/12/25 07:15:52;;;;;;;;;;;;;;;6.84;88.32;92811.84;5094801;28;20498;-89
2020/12/25 07:18:18;;;;;;;5.97;2.40;;;;;;;6.89;88.46;92808.72;5094830;28;19916;-88
2020/12/25 07:20:44;;;;;;;6.40;2.38;;;;;;;6.96;88.14;92827.38;5094804;28;20048;-88
2020/12/25 07:23:12;;;;;;;7.78;3.80;;;;;;;6.98;88.06;92820.31;5094258;28;20066;-89
2020/12/25 07:25:41;;;;;;;9.82;3.67;;;;;;;6.99;88.13;92816.75;5094504;28;20040;-89
2020/12/25 07:28:07;;;;;;;6.28;3.83;;;;;;;7.09;87.90;92808.72;5094556;28;20452;-88
2020/12/25 07:30:33;;;;;;;;;;;;;;;7.16;87.35;92818.91;5094672;28;20043;-88
2020/12/25 07:33:00;;;;;;;9.32;3.70;;;;;;;7.17;87.34;92825.63;5094450;28;19920;-89
2020/12/25 07:35:26;;;;;;;8.52;4.18;;;;;;;7.26;87.16;92823.66;5093940;28;21061;-89
2020/12/25 07:37:53;;;;;;;14.95;5.15;;;;;;;7.32;87.13;92827.97;5093987;28;20523;-88
2020/12/25 07:40:20;;;;;;;12.07;4.80;;;;;;;7.42;86.64;92819.88;5093704;28;20470;-89
2020/12/25 07:42:47;;;;;;;9.65;4.32;;;;;;;7.57;86.28;92829.88;5094197;28;20402;-88
2020/12/25 07:45:13;;;;;;;7.97;3.70;;;;;;;7.70;85.86;92829.06;5094350;28;20475;-90
2020/12/25 07:47:40;;;;;;;6.32;1.77;;;;;;;7.89;84.08;92833.34;5094333;28;20482;-88
2020/12/25 07:50:06;;;;;;;8.55;3.90;;;;;;;8.07;84.03;92828.53;5094459;28;20044;-90
2020/12/25 07:52:32;;;;;;;;;;;;;;;8.20;83.15;92827.69;5093964;28;20048;-89
2020/12/25 07:54:59;;;;;;;4.32;2.15;;;;;;;8.27;82.56;92819.00;5093283;28;19920;-87
2020/12/25 07:57:26;;;;;;;;;;;;;;;8.36;81.79;92816.97;5094049;28;20044;-90
2020/12/25 07:59:55;;;;;;;2.42;1.58;;;;;;;8.50;80.95;92832.25;5093412;28;19927;-88
2020/12/25 08:02:22;;;;;;;2.35;1.38;;;;;;;8.55;79.79;92829.91;5093642;28;20097;-88
2020/12/25 08:04:48;;;;;;;3.13;1.45;;;;;;;8.50;80.11;92812.56;5092908;28;20051;-88
2020/12/25 08:07:15;;;;;;;5.47;2.78;;;;;;;8.73;80.07;92828.41;5093233;28;20094;-90
2020/12/25 08:09:41;;;;;;;;;;;;;;;8.78;79.77;92839.59;5093716;28;20386;-89
2020/12/25 08:12:10;;;;;;;5.07;1.23;;;;;;;8.77;79.24;92832.91;5093592;28;19920;-90
2020/12/25 08:14:40;;;;;;;3.30;1.77;;;;;;;8.88;79.36;92839.13;5093662;28;20070;-90
2020/12/25 08:17:08;;;;;;;5.30;2.45;;;;;;;8.96;78.75;92838.09;5093204;28;20121;-88
2020/12/25 08:19:35;;;;;;;7.50;2.33;;;;;;;9.03;78.79;92830.38;5093151;28;20049;-89
2020/12/25 08:22:04;;;;;;;;;;;;;;;9.06;78.02;92828.19;5093967;28;20040;-88
2020/12/25 08:24:30;;;;;;;5.65;2.58;;;;;;;9.03;77.69;92817.56;5093762;28;19982;-89
2020/12/25 08:27:00;;;;;;;;;;;;;;;9.08;78.50;92835.66;5093632;28;20044;-88
2020/12/25 08:29:28;;;;;;;6.07;2.55;;;;;;;9.13;78.35;92829.91;5093067;28;20318;-88
2020/12/25 08:32:05;;;;;;;3.75;2.13;;;;;;;9.19;77.89;92827.28;5092742;28;20051;-91
2020/12/25 08:34:31;;;;;;;5.80;3.28;;;;;;;9.19;77.68;92832.41;5092710;28;20440;-88
2020/12/25 08:36:58;;;;;;;;;;;;;;;9.18;77.82;92828.28;5093018;28;20040;-88
2020/12/25 08:39:27;;;;;;;6.32;2.28;;;;;;;9.12;77.86;92812.97;5092543;28;19923;-90
2020/12/25 08:41:54;;;;;;;3.47;1.75;;;;;;;9.16;77.67;92821.81;5092282;28;20097;-90
2020/12/25 08:44:21;;;;;;;4.45;1.75;;;;;;;9.21;77.69;92820.16;5092452;28;20039;-90
2020/12/25 08:46:48;;;;;;;3.13;1.30;;;;;;;9.15;77.81;92810.75;5092896;28;20048;-89
2020/12/25 08:49:26;;;;;;;3.42;1.30;;;;;;;9.27;77.35;92813.44;5092762;28;20477;-92
2020/12/25 08:51:52;;;;;;;4.18;2.28;;;;;;;9.35;77.01;92810.56;5092994;28;20101;-91
2020/12/25 08:54:24;;;;;;;;;;;;;;;9.31;77.16;92800.97;5093217;28;20044;-90
2020/12/25 08:56:50;;;;;;;10.18;2.92;;;;;;;9.43;77.14;92816.41;5092169;28;19916;-91
2020/12/25 08:59:20;;;;;;;3.53;1.80;;;;;;;9.36;77.50;92801.13;5092606;28;20047;-91
2020/12/25 09:01:47;;;;;;;2.70;1.52;;;;;;;9.30;77.70;92804.53;5092580;28;20367;-88
2020/12/25 09:04:14;;;;;;;6.35;3.13;;;;;;;9.32;77.14;92794.84;5092812;28;20036;-90
2020/12/25 09:06:41;;;;;;;8.43;1.95;;;;;;;9.36;76.90;92796.75;5093172;28;20043;-89
2020/12/25 09:09:07;;;;;;;9.27;2.47;;;;;;;9.36;76.74;92803.69;5092988;28;20043;-92
2020/12/25 09:11:34;;;;;;;5.88;2.55;;;;;;;9.39;77.39;92803.25;5093997;28;20044;-90
2020/12/25 09:14:00;;;;;;;10.15;3.53;;;;;;;9.40;76.80;92793.78;5094722;28;20103;-87
2020/12/25 09:16:26;;;;;;;6.95;3.17;;;;;;;9.34;76.54;92773.13;5092682;28;20048;-88
2020/12/25 09:18:53;;;;;;;9.55;3.38;;;;;;;9.33;76.76;92755.41;5092125;28;20050;-88
2020/12/25 09:21:19;;;;;;;;;;;;;;;9.42;76.75;92777.19;5092144;28;20052;-90
2020/12/25 09:23:46;;;;;;;5.03;2.67;;;;;;;9.45;76.72;92769.06;5092067;28;19916;-89
2020/12/25 09:26:13;;;;;;;4.50;1.98;;;;;;;9.55;76.51;92771.16;5091757;28;20485;-89
2020/12/25 09:28:41;;;;;;;6.93;3.83;;;;;;;9.70;76.53;92763.09;5092095;28;20059;-90
2020/12/25 09:31:09;;;;;;;20.40;7.00;;;;;;;9.82;75.83;92764.94;5091792;28;20040;-90
2020/12/25 09:33:36;;;;;;;2.70;1.60;;;;;;;9.88;75.31;92767.44;5091730;28;20462;-88
2020/12/25 09:36:03;;;;;;;2.20;1.08;;;;;;;9.77;75.41;92765.59;5091727;28;20109;-91
2020/12/25 09:38:30;;;;;;;4.63;2.22;;;;;;;9.86;75.57;92764.28;5091869;28;20045;-87
2020/12/25 09:40:57;;;;;;;12.80;4.05;;;;;;;9.98;75.38;92769.47;5091759;28;20043;-90
2020/12/25 09:43:24;;;;;;;6.25;2.95;;;;;;;10.09;75.45;92773.06;5092303;28;20044;-90
2020/12/25 09:45:50;;;;;;;;;;;;;;;10.21;74.86;92768.00;5092936;28;20040;-90
2020/12/25 09:48:16;;;;;;;5.13;2.03;;;;;;;10.11;74.44;92765.16;5091977;28;19947;-90
2020/12/25 09:50:43;;;;;;;;;;;;;;;10.24;74.99;92764.97;5092172;28;20056;-88
2020/12/25 09:53:09;;;;;;;3.95;2.05;;;;;;;10.22;74.58;92766.19;5093603;28;20285;-88
2020/12/25 09:55:37;;;;;;;4.38;1.70;;;;;;;10.26;74.07;92755.28;5091871;28;20040;-88
2020/12/25 09:58:05;;;;;;;5.68;2.55;;;;;;;10.32;74.01;92750.28;5091655;28;20096;-89
2020/12/25 10:00:31;;;;;;;4.40;2.25;;;;;;;10.32;73.80;92747.72;5091717;28;20066;-90
2020/12/25 10:02:58;;;;;;;3.45;1.73;;;;;;;10.39;73.58;92743.28;5092163;28;20479;-91
2020/12/25 10:05:40;;;;;;;3.47;1.85;;;;;;;10.26;73.45;92714.22;5094418;28;20047;-89
2020/12/25 10:08:07;;;;;;;15.07;4.78;;;;;;;10.46;72.29;92736.28;5089544;28;20044;-88
2020/12/25 10:10:33;;;;;;;6.57;2.15;;;;;;;10.37;73.51;92735.00;5087969;28;20090;-90
2020/12/25 10:12:59;;;;;;;;;;;;;;;10.48;73.25;92741.19;5089919;28;20421;-90
2020/12/25 10:15:26;;;;;;;18.25;6.90;;;;;;;10.50;73.84;92734.84;5089766;28;19916;-91
2020/12/25 10:17:53;;;;;;;4.45;2.63;;;;;;;10.56;73.35;92728.06;5089072;28;20049;-89
2020/12/25 10:20:19;;;;;;;;;;;;;;;10.56;72.96;92736.53;5088053;28;20040;-89
2020/12/25 10:22:45;;;;;;;5.43;1.85;;;;;;;10.66;73.00;92725.69;5091388;28;19928;-88
2020/12/25 10:25:11;;;;;;;;;;;;;;;10.72;72.77;92724.03;5092663;28;20454;-89
2020/12/25 10:27:37;;;;;;;8.80;3.78;;;;;;;10.74;72.76;92721.25;5092551;28;19916;-91
2020/12/25 10:30:03;;;;;;;;;;;;;;;10.75;72.04;92717.69;5095308;28;20375;-90
2020/12/25 10:32:31;;;;;;;31.33;9.25;;;;;;;10.80;72.13;92713.41;5094581;28;19924;-89
2020/12/25 10:34:57;;;;;;;55.17;17.20;;;;;;;10.93;71.88;92709.84;5094474;28;20035;-89
2020/12/25 10:37:23;;;;;;;;;;;;;;;11.05;71.61;92715.00;5094535;28;20040;-88
2020/12/25 10:39:51;;;;;;;20.65;7.57;;;;;;;11.13;71.42;92715.66;5094217;28;19977;-89
2020/12/25 10:42:18;;;;;;;6.78;2.08;;;;;;;11.20;71.31;92714.53;5091940;28;20489;-89
2020/12/25 10:44:44;;;;;;;;;;;;;;;11.19;70.65;92712.97;5096545;28;20416;-89
2020/12/25 10:47:12;;;;;;;5.82;2.53;;;;;;;11.21;70.71;92702.47;5095686;28;19961;-89
2020/12/25 10:49:39;;;;;;;4.63;1.85;;;;;;;11.23;71.04;92705.59;5095713;28;20138;-89
2020/12/25 10:52:05;;;;;;;3.15;1.35;;;;;;;11.28;70.44;92700.56;5094511;28;20169;-88
2020/12/25 10:54:31;;;;;;;;;;;;;;;11.30;71.15;92701.09;5096063;28;20048;-90
2020/12/25 10:56:58;;;;;;;4.68;1.83;;;;;;;11.30;70.24;92693.38;5096086;28;20271;-90
2020/12/25 10:59:24;;;;;;;;;;;;;;;11.42;70.35;92685.66;5095786;28;20470;-90
2020/12/25 11:01:50;;;;;;;2.38;1.40;;;;;;;11.38;70.55;92681.97;5090614;28;19923;-89
2020/12/25 11:04:16;;;;;;;;;;;;;;;11.50;69.58;92682.72;5095840;28;20036;-90
2020/12/25 11:06:44;;;;;;;3.35;1.60;;;;;;;11.48;70.35;92683.97;5095201;28;19923;-89
2020/12/25 11:09:11;;;;;;;6.10;2.60;;;;;;;11.27;70.67;92633.94;5095147;28;20089;-89
2020/12/25 11:11:39;;;;;;;5.03;2.08;;;;;;;11.64;69.87;92674.75;5094623;28;20047;-88
2020/12/25 11:14:07;;;;;;;4.75;2.40;;;;;;;11.70;69.67;92678.97;5095119;28;20040;-90
2020/12/25 11:16:36;;;;;;;6.03;2.67;;;;;;;11.73;69.54;92680.31;5095138;28;20482;-89
2020/12/25 11:19:06;;;;;;;4.63;2.30;;;;;;;11.67;70.43;92679.41;5095957;28;20044;-89
2020/12/25 11:21:33;;;;;;;3.72;1.92;;;;;;;11.74;69.26;92677.50;5097111;28;20044;-89
2020/12/25 11:24:02;;;;;;;3.58;1.85;;;;;;;11.83;68.96;92669.41;5094676;28;20371;-89
2020/12/25 11:26:29;;;;;;;9.40;2.00;;;;;;;11.84;68.75;92664.03;5094587;28;20040;-90
2020/12/25 11:28:57;;;;;;;5.10;1.85;;;;;;;11.73;68.98;92659.72;5094814;28;20043;-87
2020/12/25 11:31:24;;;;;;;2.72;1.17;;;;;;;11.54;69.09;92657.34;5094756;28;20040;-88
2020/12/25 11:33:52;;;;;;;3.58;1.95;;;;;;;11.61;69.87;92665.69;5094847;28;20040;-89
2020/12/25 11:36:19;;;;;;;2.65;1.45;;;;;;;11.61;70.00;92667.47;5075508;28;20592;-90
2020/12/25 11:38:46;;;;;;;4.97;1.70;;;;;;;11.47;69.52;92666.97;5073343;28;20056;-87
2020/12/25 11:41:16;;;;;;;3.63;1.75;;;;;;;11.52;68.94;92656.78;5076834;28;20043;-86
2020/12/25 11:43:43;;;;;;;1.75;1.00;;;;;;;11.56;68.98;92663.03;5093081;28;20044;-87
2020/12/25 11:46:10;;;;;;;1.88;1.00;;;;;;;11.55;70.30;92663.25;5093647;28;20372;-88
2020/12/25 11:48:38;;;;;;;3.05;1.60;;;;;;;11.65;69.81;92660.06;5078200;28;20048;-87
2020/12/25 11:51:05;;;;;;;4.50;1.85;;;;;;;11.68;70.49;92657.84;5088645;28;20036;-88
2020/12/25 11:53:31;;;;;;;9.88;3.42;;;;;;;11.69;69.83;92663.75;5095811;28;20479;-88